Time;durP1;ratioP1;P1;durP2;ratioP2;P2;SDS_P1;SDS_P2;PMS_P1;PMS_P2;Temp;Humidity;BMP_temperature;BMP_pressure;BME280_temperature;BME280_humidity;BME280_pressure;Samples;Min_cycle;Max_cycle;Signal;HPM_P1;HPM_P2
2024/01/06 00:00:58;;;;;;;18.05;7.20;;;;;;;;;;6122532;29;20528;-92
2024/01/06 00:04:00;;;;;;;6.43;6.22;;;;;;;;;;6129831;29;20058;-91
2024/01/06 00:07:02;;;;;;;7.30;7.00;;;;;;;;;;6139244;28;20055;-93
2024/01/06 00:10:04;;;;;;;7.53;7.03;;;;;;;;;;6137565;28;20155;-92
2024/01/06 00:13:06;;;;;;;6.20;6.00;;;;;;;;;;6135255;29;20134;-92
2024/01/06 00:16:08;;;;;;;5.70;5.50;;;;;;;;;;6144915;28;20361;-91
2024/01/06 00:19:10;;;;;;;6.63;6.43;;;;;;;;;;6142102;29;20050;-91
2024/01/06 00:22:12;;;;;;;7.47;7.13;;;;;;;;;;6141872;28;20058;-90
2024/01/06 00:25:14;;;;;;;18.35;7.65;;;;;;;;;;6143645;28;20047;-91
2024/01/06 00:28:16;;;;;;;8.93;8.27;;;;;;;;;;6143767;28;20158;-91
2024/01/06 00:31:19;;;;;;;8.38;8.00;;;;;;;;;;6141395;28;20035;-91
2024/01/06 00:34:21;;;;;;;11.15;9.93;;;;;;;;;;6141507;29;20132;-91
2024/01/06 00:37:23;;;;;;;8.65;8.07;;;;;;;;;;6142867;28;20049;-91
2024/01/06 00:40:25;;;;;;;8.50;8.00;;;;;;;;;;6140992;28;20170;-91
2024/01/06 00:43:27;;;;;;;8.30;7.72;;;;;;;;;;6139836;28;20047;-91
2024/01/06 00:46:28;;;;;;;7.68;7.32;;;;;;;;;;6143526;28;20039;-91
2024/01/06 00:49:34;;;;;;;8.65;8.25;;;;;;;;;;6138840;28;20070;-91
2024/01/06 00:52:36;;;;;;;8.48;8.05;;;;;;;;;;6137478;29;20117;-91
2024/01/06 00:55:38;;;;;;;9.15;8.40;;;;;;;;;;6137306;28;20075;-91
2024/01/06 00:58:41;;;;;;;8.32;7.80;;;;;;;;;;6139596;29;20058;-91
2024/01/06 01:01:43;;;;;;;9.18;8.77;;;;;;;;;;6139102;28;20048;-91
2024/01/06 01:04:46;;;;;;;9.77;9.05;;;;;;;;;;6141540;28;20299;-91
2024/01/06 01:07:47;;;;;;;7.75;7.35;;;;;;;;;;6139766;29;20058;-92
2024/01/06 01:10:49;;;;;;;6.85;6.60;;;;;;;;;;6140341;28;20406;-91
2024/01/06 01:13:51;;;;;;;8.15;7.47;;;;;;;;;;6139336;29;20042;-91
2024/01/06 01:16:53;;;;;;;7.55;7.18;;;;;;;;;;6137427;29;20645;-91
2024/01/06 01:19:55;;;;;;;7.78;7.47;;;;;;;;;;6134423;28;20494;-92
2024/01/06 01:22:57;;;;;;;7.53;7.20;;;;;;;;;;6139322;28;20075;-91
2024/01/06 01:26:00;;;;;;;8.20;7.82;;;;;;;;;;6142071;29;20449;-91
2024/01/06 01:29:02;;;;;;;6.85;6.55;;;;;;;;;;6126672;29;20043;-91
2024/01/06 01:32:04;;;;;;;7.63;7.22;;;;;;;;;;6137162;28;20506;-92
2024/01/06 01:35:06;;;;;;;7.57;7.10;;;;;;;;;;6133496;28;20047;-91
2024/01/06 01:38:08;;;;;;;6.80;6.50;;;;;;;;;;6114245;29;20198;-92
2024/01/06 01:41:10;;;;;;;7.05;6.68;;;;;;;;;;6129743;29;20055;-92
2024/01/06 01:44:12;;;;;;;8.50;7.82;;;;;;;;;;6130463;28;20114;-91
2024/01/06 01:47:18;;;;;;;7.22;6.93;;;;;;;;;;6132896;28;20046;-91
2024/01/06 01:50:22;;;;;;;7.53;7.22;;;;;;;;;;6128421;29;20050;-91
2024/01/06 01:53:25;;;;;;;7.32;6.93;;;;;;;;;;6132628;29;20036;-92
2024/01/06 01:56:27;;;;;;;6.35;6.05;;;;;;;;;;6137276;28;20162;-92
2024/01/06 01:59:29;;;;;;;6.00;5.70;;;;;;;;;;6140374;29;20043;-92
2024/01/06 02:02:32;;;;;;;6.03;5.82;;;;;;;;;;6140910;29;20054;-91
2024/01/06 02:05:34;;;;;;;5.82;5.63;;;;;;;;;;6137882;28;20047;-91
2024/01/06 02:08:36;;;;;;;5.85;5.40;;;;;;;;;;6140077;29;20117;-91
2024/01/06 02:11:38;;;;;;;6.75;6.45;;;;;;;;;;6140703;29;20047;-92
2024/01/06 02:14:41;;;;;;;5.97;5.78;;;;;;;;;;6141783;28;20042;-92
2024/01/06 02:17:43;;;;;;;8.43;7.95;;;;;;;;;;6137246;28;20122;-92
2024/01/06 02:20:46;;;;;;;9.15;8.45;;;;;;;;;;6136546;28;20101;-92
2024/01/06 02:23:48;;;;;;;8.55;7.85;;;;;;;;;;6141129;28;20126;-92
2024/01/06 02:26:50;;;;;;;8.75;7.82;;;;;;;;;;6137215;28;20047;-92
2024/01/06 02:29:52;;;;;;;8.90;8.38;;;;;;;;;;6138850;28;20039;-91
2024/01/06 02:32:54;;;;;;;7.13;6.78;;;;;;;;;;6140596;28;20094;-92
2024/01/06 02:35:56;;;;;;;7.32;6.93;;;;;;;;;;6136563;28;20047;-92
2024/01/06 02:38:58;;;;;;;6.13;5.82;;;;;;;;;;6112270;29;20109;-93
2024/01/06 02:42:00;;;;;;;5.95;5.75;;;;;;;;;;6136125;28;20075;-92
2024/01/06 02:45:02;;;;;;;9.73;7.88;;;;;;;;;;6128672;28;20568;-92
2024/01/06 02:48:04;;;;;;;7.07;6.68;;;;;;;;;;6131192;29;20070;-92
2024/01/06 02:51:06;;;;;;;7.25;6.95;;;;;;;;;;6134284;29;20497;-92
2024/01/06 02:54:08;;;;;;;6.03;5.78;;;;;;;;;;6130562;29;20043;-92
2024/01/06 02:57:13;;;;;;;7.55;7.13;;;;;;;;;;6140318;28;20411;-93
2024/01/06 03:00:15;;;;;;;7.72;7.43;;;;;;;;;;6128306;29;20303;-92
2024/01/06 03:03:18;;;;;;;8.93;8.43;;;;;;;;;;6140465;28;20051;-92
2024/01/06 03:06:20;;;;;;;7.40;7.07;;;;;;;;;;6141254;28;20039;-92
2024/01/06 03:09:22;;;;;;;7.55;7.05;;;;;;;;;;6127051;28;20413;-92
2024/01/06 03:12:26;;;;;;;7.15;6.85;;;;;;;;;;6131971;28;20051;-92
2024/01/06 03:15:28;;;;;;;7.90;7.50;;;;;;;;;;6134156;28;20067;-91
2024/01/06 03:18:30;;;;;;;7.68;7.18;;;;;;;;;;6135537;29;20043;-93
2024/01/06 03:21:33;;;;;;;7.40;7.03;;;;;;;;;;6139594;28;20051;-92
2024/01/06 03:24:34;;;;;;;7.93;7.30;;;;;;;;;;6136040;28;20047;-92
2024/01/06 03:27:36;;;;;;;9.05;8.27;;;;;;;;;;6138160;28;20055;-92
2024/01/06 03:30:38;;;;;;;7.28;6.97;;;;;;;;;;6136482;29;20614;-93
2024/01/06 03:33:40;;;;;;;9.07;8.48;;;;;;;;;;6131595;28;20047;-93
2024/01/06 03:36:43;;;;;;;8.55;8.18;;;;;;;;;;6139689;28;20062;-93
2024/01/06 03:39:44;;;;;;;8.43;8.02;;;;;;;;;;6127921;28;20051;-93
2024/01/06 03:42:47;;;;;;;8.63;8.13;;;;;;;;;;6142235;28;20762;-93
2024/01/06 03:45:50;;;;;;;10.10;9.40;;;;;;;;;;6143969;28;20062;-93
2024/01/06 03:48:51;;;;;;;8.25;7.65;;;;;;;;;;6141558;29;20035;-93
2024/01/06 03:51:55;;;;;;;9.25;8.60;;;;;;;;;;6140310;29;20127;-93
2024/01/06 03:54:58;;;;;;;8.00;7.60;;;;;;;;;;6144313;28;20516;-92
2024/01/06 03:58:00;;;;;;;8.43;7.63;;;;;;;;;;6135378;29;20101;-93
2024/01/06 04:01:02;;;;;;;8.05;7.55;;;;;;;;;;6144347;29;20039;-93
2024/01/06 04:04:04;;;;;;;7.43;7.05;;;;;;;;;;6126558;29;20422;-93
2024/01/06 04:07:06;;;;;;;7.28;6.97;;;;;;;;;;6142535;28;20039;-93
2024/01/06 04:10:09;;;;;;;6.90;6.60;;;;;;;;;;6134316;28;20129;-93
2024/01/06 04:13:11;;;;;;;8.00;7.63;;;;;;;;;;6141633;29;20050;-93
2024/01/06 04:16:13;;;;;;;8.93;7.38;;;;;;;;;;6128436;28;20040;-93
2024/01/06 04:19:15;;;;;;;8.32;7.88;;;;;;;;;;6131394;29;20557;-93
2024/01/06 04:22:17;;;;;;;8.57;7.85;;;;;;;;;;6141046;28;20047;-93
2024/01/06 04:25:19;;;;;;;7.10;6.75;;;;;;;;;;6140844;29;20059;-93
2024/01/06 04:28:21;;;;;;;9.15;8.23;;;;;;;;;;6144025;28;20647;-93
2024/01/06 04:31:23;;;;;;;8.18;7.57;;;;;;;;;;6141522;28;20050;-93
2024/01/06 04:34:25;;;;;;;10.48;9.57;;;;;;;;;;6131285;29;20058;-93
2024/01/06 04:37:28;;;;;;;10.40;9.75;;;;;;;;;;6140653;28;20043;-93
2024/01/06 04:40:30;;;;;;;8.63;8.02;;;;;;;;;;6134160;28;20501;-93
2024/01/06 04:43:32;;;;;;;8.80;8.20;;;;;;;;;;6134248;29;20075;-94
2024/01/06 04:46:34;;;;;;;10.57;8.52;;;;;;;;;;6126044;29;20070;-93
2024/01/06 04:49:36;;;;;;;9.27;8.45;;;;;;;;;;6142749;28;20161;-93
2024/01/06 04:52:38;;;;;;;8.85;8.43;;;;;;;;;;6141956;28;20465;-93
2024/01/06 04:55:40;;;;;;;8.48;8.07;;;;;;;;;;6137370;28;20043;-94
2024/01/06 04:58:42;;;;;;;8.15;7.85;;;;;;;;;;6140333;28;20300;-93
2024/01/06 05:01:44;;;;;;;10.85;10.15;;;;;;;;;;6138201;29;20185;-94
2024/01/06 05:04:46;;;;;;;6.65;6.35;;;;;;;;;;6143197;28;20129;-93
2024/01/06 05:07:48;;;;;;;9.77;7.70;;;;;;;;;;6138396;29;20114;-93
2024/01/06 05:10:52;;;;;;;9.88;9.15;;;;;;;;;;6134581;29;20530;-93
2024/01/06 05:13:54;;;;;;;7.15;6.75;;;;;;;;;;6139088;29;20130;-93
2024/01/06 05:16:56;;;;;;;9.77;9.18;;;;;;;;;;6135955;28;20039;-93
2024/01/06 05:20:00;;;;;;;9.05;8.45;;;;;;;;;;6141533;28;20039;-93
2024/01/06 05:23:01;;;;;;;7.82;7.43;;;;;;;;;;6139537;28;20529;-93
2024/01/06 05:26:04;;;;;;;8.43;7.90;;;;;;;;;;6138196;29;20047;-93
2024/01/06 05:29:06;;;;;;;8.07;7.40;;;;;;;;;;6142337;28;20154;-93
2024/01/06 05:32:07;;;;;;;9.63;8.98;;;;;;;;;;6140097;28;20130;-93
2024/01/06 05:35:10;;;;;;;7.80;7.38;;;;;;;;;;6138054;29;20066;-93
2024/01/06 05:38:12;;;;;;;9.18;8.68;;;;;;;;;;6141803;29;20490;-93
2024/01/06 05:41:15;;;;;;;8.40;7.82;;;;;;;;;;6137378;28;20039;-94
2024/01/06 05:44:17;;;;;;;9.13;8.43;;;;;;;;;;6122805;29;20054;-93
2024/01/06 05:47:19;;;;;;;8.60;7.88;;;;;;;;;;6133561;28;20137;-94
2024/01/06 05:50:21;;;;;;;9.82;9.20;;;;;;;;;;6132929;28;20035;-93
2024/01/06 05:53:24;;;;;;;10.02;9.32;;;;;;;;;;6141845;28;20050;-93
2024/01/06 05:56:26;;;;;;;8.90;8.35;;;;;;;;;;6126247;29;20485;-93
2024/01/06 05:59:30;;;;;;;9.20;8.45;;;;;;;;;;6139130;29;20051;-93
2024/01/06 06:02:33;;;;;;;12.70;10.43;;;;;;;;;;6134817;29;20529;-93
2024/01/06 06:05:35;;;;;;;10.57;8.88;;;;;;;;;;6141601;28;20054;-93
2024/01/06 06:08:41;;;;;;;10.18;9.30;;;;;;;;;;6135363;29;20067;-94
2024/01/06 06:11:43;;;;;;;8.15;7.72;;;;;;;;;;6138761;29;20047;-94
2024/01/06 06:14:46;;;;;;;10.95;9.98;;;;;;;;;;6138535;29;20051;-93
2024/01/06 06:17:49;;;;;;;7.28;6.90;;;;;;;;;;6140565;28;20429;-93
2024/01/06 06:20:52;;;;;;;9.82;9.20;;;;;;;;;;6140205;29;20045;-93
2024/01/06 06:23:54;;;;;;;8.85;8.18;;;;;;;;;;6138917;28;20086;-93
2024/01/06 06:26:56;;;;;;;8.52;7.93;;;;;;;;;;6104614;29;20557;-93
2024/01/06 06:29:58;;;;;;;9.00;8.30;;;;;;;;;;6152911;28;20055;-94
2024/01/06 06:33:00;;;;;;;8.27;7.68;;;;;;;;;;6141690;28;20689;-93
2024/01/06 06:36:04;;;;;;;7.53;7.10;;;;;;;;;;6137090;28;20547;-94
2024/01/06 06:39:06;;;;;;;9.02;8.18;;;;;;;;;;6139147;29;20039;-93
2024/01/06 06:42:08;;;;;;;8.15;7.65;;;;;;;;;;6139569;28;21248;-94
2024/01/06 06:45:16;;;;;;;8.77;8.27;;;;;;;;;;6135474;28;20509;-93
2024/01/06 06:48:18;;;;;;;10.13;8.65;;;;;;;;;;6122326;29;20062;-94
2024/01/06 06:51:24;;;;;;;8.88;8.32;;;;;;;;;;6140339;28;20441;-93
2024/01/06 06:54:26;;;;;;;9.70;8.90;;;;;;;;;;6139776;29;20097;-94
2024/01/06 06:57:28;;;;;;;12.40;9.43;;;;;;;;;;6123719;29;20050;-93
2024/01/06 07:00:31;;;;;;;9.48;8.75;;;;;;;;;;6139543;29;20052;-92
2024/01/06 07:03:33;;;;;;;9.52;8.77;;;;;;;;;;6138831;29;20559;-94
2024/01/06 07:06:35;;;;;;;11.48;10.15;;;;;;;;;;6138661;28;20087;-93
2024/01/06 07:09:37;;;;;;;8.77;8.27;;;;;;;;;;6139838;28;20114;-93
2024/01/06 07:12:39;;;;;;;8.00;7.57;;;;;;;;;;6132484;29;20490;-94
2024/01/06 07:15:41;;;;;;;10.75;9.88;;;;;;;;;;6138485;28;20477;-94
2024/01/06 07:18:43;;;;;;;8.85;8.35;;;;;;;;;;6141225;29;20489;-93
2024/01/06 07:21:46;;;;;;;11.90;11.10;;;;;;;;;;6130683;28;20421;-93
2024/01/06 07:24:48;;;;;;;7.85;7.50;;;;;;;;;;6122615;29;20075;-95
2024/01/06 07:27:50;;;;;;;8.50;8.10;;;;;;;;;;6138001;28;20490;-95
2024/01/06 07:30:56;;;;;;;10.93;8.70;;;;;;;;;;6140491;28;20138;-94
2024/01/06 07:33:58;;;;;;;9.13;8.52;;;;;;;;;;6143981;28;20043;-94
2024/01/06 07:37:00;;;;;;;8.57;8.07;;;;;;;;;;6139779;28;20070;-93
2024/01/06 07:40:02;;;;;;;8.70;8.05;;;;;;;;;;6142458;28;20043;-94
2024/01/06 07:43:04;;;;;;;8.25;7.65;;;;;;;;;;6140698;29;20524;-93
2024/01/06 07:46:07;;;;;;;9.02;8.52;;;;;;;;;;6140002;28;20154;-94
2024/01/06 07:49:09;;;;;;;9.65;9.05;;;;;;;;;;6140299;29;20097;-93
2024/01/06 07:52:13;;;;;;;10.68;9.82;;;;;;;;;;6140648;28;20126;-94
2024/01/06 07:55:15;;;;;;;9.65;8.95;;;;;;;;;;6140897;28;20043;-94
2024/01/06 07:58:20;;;;;;;8.65;8.05;;;;;;;;;;6142000;28;20271;-94
2024/01/06 08:01:25;;;;;;;9.45;8.80;;;;;;;;;;6140956;29;20501;-94
2024/01/06 08:04:27;;;;;;;9.05;8.55;;;;;;;;;;6142773;29;20685;-94
2024/01/06 08:07:29;;;;;;;9.13;8.43;;;;;;;;;;6132516;29;20062;-94
2024/01/06 08:10:31;;;;;;;10.30;9.65;;;;;;;;;;6150023;28;20851;-94
2024/01/06 08:13:33;;;;;;;13.82;11.52;;;;;;;;;;6136451;29;20476;-94
2024/01/06 08:16:36;;;;;;;10.15;9.18;;;;;;;;;;6139555;29;20047;-95
2024/01/06 08:19:38;;;;;;;9.30;8.70;;;;;;;;;;6141723;28;20054;-94
2024/01/06 08:22:40;;;;;;;9.00;8.55;;;;;;;;;;6126760;29;20095;-94
2024/01/06 08:25:43;;;;;;;10.02;9.45;;;;;;;;;;6142115;28;20047;-95
2024/01/06 08:28:45;;;;;;;7.93;7.43;;;;;;;;;;6136927;28;20090;-95
2024/01/06 08:31:47;;;;;;;9.00;8.50;;;;;;;;;;6140777;29;20046;-94
2024/01/06 08:34:49;;;;;;;10.32;9.63;;;;;;;;;;6133322;29;20043;-95
2024/01/06 08:37:51;;;;;;;10.75;9.88;;;;;;;;;;6117223;29;20078;-94
2024/01/06 08:40:53;;;;;;;11.73;10.13;;;;;;;;;;6141160;28;20051;-94
2024/01/06 08:43:57;;;;;;;11.52;10.48;;;;;;;;;;6135893;29;20051;-94
2024/01/06 08:46:59;;;;;;;11.35;9.30;;;;;;;;;;6137966;29;20122;-94
2024/01/06 08:50:02;;;;;;;11.48;10.75;;;;;;;;;;6137952;29;20382;-94
2024/01/06 08:53:04;;;;;;;12.18;11.18;;;;;;;;;;6127445;28;20059;-95
2024/01/06 08:56:07;;;;;;;10.07;9.48;;;;;;;;;;6136693;28;20048;-95
2024/01/06 08:59:09;;;;;;;10.55;9.77;;;;;;;;;;6136809;29;20050;-95
2024/01/06 09:02:11;;;;;;;10.80;9.90;;;;;;;;;;6141758;28;20043;-94
2024/01/06 09:05:14;;;;;;;10.70;10.02;;;;;;;;;;6136905;28;20047;-94
2024/01/06 09:08:26;;;;;;;13.75;11.80;;;;;;;;;;6123042;29;20481;-94
2024/01/06 09:11:28;;;;;;;10.20;9.20;;;;;;;;;;6128748;28;20147;-92
2024/01/06 09:14:30;;;;;;;9.25;8.75;;;;;;;;;;6141549;28;20066;-91
2024/01/06 09:17:34;;;;;;;8.55;7.93;;;;;;;;;;6133646;28;20047;-92
2024/01/06 09:20:36;;;;;;;23.52;11.50;;;;;;;;;;6135301;28;20809;-92
2024/01/06 09:23:38;;;;;;;12.48;11.23;;;;;;;;;;6139320;29;20055;-91
2024/01/06 09:26:44;;;;;;;10.55;9.90;;;;;;;;;;6138766;28;20070;-91
2024/01/06 09:29:47;;;;;;;10.82;9.88;;;;;;;;;;6140753;28;20043;-91
2024/01/06 09:32:49;;;;;;;11.95;10.02;;;;;;;;;;6134440;29;20749;-91
2024/01/06 09:35:51;;;;;;;11.90;10.73;;;;;;;;;;6138584;28;20118;-91
2024/01/06 09:38:53;;;;;;;13.57;12.15;;;;;;;;;;6135502;28;20090;-91
2024/01/06 09:41:55;;;;;;;11.85;11.02;;;;;;;;;;6130414;29;20620;-91
2024/01/06 09:44:58;;;;;;;8.68;8.10;;;;;;;;;;6141756;28;20055;-91
2024/01/06 09:48:05;;;;;;;10.57;9.77;;;;;;;;;;6134323;28;20482;-91
2024/01/06 09:51:10;;;;;;;9.63;9.02;;;;;;;;;;6134161;28;20470;-91
2024/01/06 09:54:13;;;;;;;9.55;8.98;;;;;;;;;;6141441;28;20051;-91
2024/01/06 09:57:16;;;;;;;10.20;9.48;;;;;;;;;;6140315;28;20097;-91
2024/01/06 10:00:19;;;;;;;10.70;9.65;;;;;;;;;;6122774;29;20084;-90
2024/01/06 10:03:21;;;;;;;9.20;8.70;;;;;;;;;;6135782;29;20513;-91
2024/01/06 10:06:23;;;;;;;10.50;9.68;;;;;;;;;;6138046;28;20047;-91
2024/01/06 10:09:26;;;;;;;9.73;8.85;;;;;;;;;;6135876;28;20054;-91
2024/01/06 10:12:28;;;;;;;8.60;8.07;;;;;;;;;;6133717;28;20054;-90
2024/01/06 10:15:35;;;;;;;9.75;9.15;;;;;;;;;;6127505;28;20047;-90
2024/01/06 10:18:37;;;;;;;9.30;8.80;;;;;;;;;;6138905;28;20055;-90
2024/01/06 10:21:39;;;;;;;8.07;7.65;;;;;;;;;;6128701;28;20039;-89
2024/01/06 10:24:42;;;;;;;8.95;8.38;;;;;;;;;;6134895;28;20039;-90
2024/01/06 10:27:44;;;;;;;7.57;7.18;;;;;;;;;;6137865;29;20054;-90
2024/01/06 10:30:46;;;;;;;8.30;7.85;;;;;;;;;;6131245;29;20048;-90
2024/01/06 10:33:48;;;;;;;8.68;8.15;;;;;;;;;;6134373;29;20221;-90
2024/01/06 10:36:53;;;;;;;8.60;8.10;;;;;;;;;;6136261;29;20043;-88
2024/01/06 10:40:06;;;;;;;9.95;9.35;;;;;;;;;;6140936;28;20535;-89
2024/01/06 10:43:09;;;;;;;7.78;7.32;;;;;;;;;;6132595;29;20469;-91
2024/01/06 10:46:12;;;;;;;8.30;7.85;;;;;;;;;;6120210;29;21118;-91
2024/01/06 10:49:15;;;;;;;8.48;7.85;;;;;;;;;;6118780;28;20261;-90
2024/01/06 10:52:17;;;;;;;7.93;7.47;;;;;;;;;;6135731;28;20101;-94
2024/01/06 10:55:20;;;;;;;8.50;7.95;;;;;;;;;;6123979;29;20043;-90
2024/01/06 10:58:22;;;;;;;11.82;9.68;;;;;;;;;;6138879;28;20607;-90
2024/01/06 11:01:24;;;;;;;9.57;8.82;;;;;;;;;;6134299;28;20150;-90
2024/01/06 11:04:30;;;;;;;10.43;9.40;;;;;;;;;;6132377;29;20114;-89
2024/01/06 11:07:33;;;;;;;9.93;8.98;;;;;;;;;;6136335;28;20201;-90
2024/01/06 11:10:36;;;;;;;11.32;10.32;;;;;;;;;;6134036;28;20513;-89
2024/01/06 11:13:38;;;;;;;7.72;7.35;;;;;;;;;;6135978;28;20051;-94
2024/01/06 11:16:58;;;;;;;10.25;9.40;;;;;;;;;;6061188;28;20539;-94
2024/01/06 11:20:08;;;;;;;9.13;8.50;;;;;;;;;;6123359;29;20047;-91
2024/01/06 11:23:19;;;;;;;8.68;8.18;;;;;;;;;;6128722;29;20058;-93
2024/01/06 11:26:21;;;;;;;8.85;8.38;;;;;;;;;;6130405;28;20043;-93
2024/01/06 11:29:23;;;;;;;8.30;7.97;;;;;;;;;;6135926;28;20040;-92
2024/01/06 11:32:27;;;;;;;8.52;8.05;;;;;;;;;;6138167;28;20046;-92
2024/01/06 11:35:29;;;;;;;9.23;8.63;;;;;;;;;;6133006;28;20051;-91
2024/01/06 11:38:33;;;;;;;8.57;8.00;;;;;;;;;;6138811;28;20074;-90
2024/01/06 11:41:49;;;;;;;10.40;7.43;;;;;;;;;;6128901;29;20051;-90
2024/01/06 11:44:51;;;;;;;10.05;9.02;;;;;;;;;;6127969;29;20055;-89
2024/01/06 11:47:58;;;;;;;8.70;7.95;;;;;;;;;;6136136;28;20141;-89
2024/01/06 11:51:02;;;;;;;8.23;7.63;;;;;;;;;;6135328;28;20213;-89
2024/01/06 11:54:04;;;;;;;7.43;7.03;;;;;;;;;;6135412;28;20031;-89
2024/01/06 11:57:06;;;;;;;9.75;8.95;;;;;;;;;;6138419;28;20175;-91
2024/01/06 12:00:09;;;;;;;9.27;8.73;;;;;;;;;;6139289;28;20044;-90
2024/01/06 12:03:11;;;;;;;8.70;8.23;;;;;;;;;;6130498;28;20050;-90
2024/01/06 12:06:12;;;;;;;6.43;6.18;;;;;;;;;;6140999;28;20048;-89
2024/01/06 12:09:18;;;;;;;8.18;7.70;;;;;;;;;;6133944;29;20131;-89
2024/01/06 12:12:20;;;;;;;8.10;7.68;;;;;;;;;;6138402;28;20554;-89
2024/01/06 12:15:22;;;;;;;8.85;8.30;;;;;;;;;;6139415;28;20067;-88
2024/01/06 12:18:25;;;;;;;9.55;8.80;;;;;;;;;;6142228;28;20043;-89
2024/01/06 12:21:28;;;;;;;9.00;8.23;;;;;;;;;;6135200;28;20174;-89
2024/01/06 12:24:30;;;;;;;8.13;7.70;;;;;;;;;;6138771;29;20102;-89
2024/01/06 12:27:33;;;;;;;9.23;8.68;;;;;;;;;;6139038;29;20043;-89
2024/01/06 12:30:35;;;;;;;9.60;8.90;;;;;;;;;;6143441;28;20575;-89
2024/01/06 12:33:41;;;;;;;7.45;6.85;;;;;;;;;;6138584;28;20068;-89
2024/01/06 12:36:47;;;;;;;9.25;8.63;;;;;;;;;;6138025;28;20202;-90
2024/01/06 12:39:48;;;;;;;9.82;8.77;;;;;;;;;;6138668;28;20047;-89
2024/01/06 12:42:50;;;;;;;16.73;7.93;;;;;;;;;;6135605;28;20394;-89
2024/01/06 12:45:53;;;;;;;8.48;7.97;;;;;;;;;;6131935;28;20102;-90
2024/01/06 12:48:55;;;;;;;8.27;7.70;;;;;;;;;;6134210;29;20044;-91
2024/01/06 12:51:57;;;;;;;8.23;7.75;;;;;;;;;;6135404;28;20039;-90
2024/01/06 12:54:59;;;;;;;9.15;8.57;;;;;;;;;;6141683;28;20043;-90
2024/01/06 12:58:03;;;;;;;9.60;8.95;;;;;;;;;;6140371;29;20051;-89
2024/01/06 13:01:06;;;;;;;10.75;10.05;;;;;;;;;;6140795;29;20129;-90
2024/01/06 13:04:08;;;;;;;8.73;8.23;;;;;;;;;;6137965;29;20039;-89
2024/01/06 13:07:10;;;;;;;12.57;9.25;;;;;;;;;;6135142;28;20039;-89
2024/01/06 13:10:12;;;;;;;7.28;6.95;;;;;;;;;;6137341;28;20047;-89
2024/01/06 13:13:15;;;;;;;9.63;8.80;;;;;;;;;;6133680;29;20292;-89
2024/01/06 13:16:17;;;;;;;8.10;7.63;;;;;;;;;;6136199;28;20054;-89
2024/01/06 13:19:20;;;;;;;8.85;8.23;;;;;;;;;;6140917;29;20039;-89
2024/01/06 13:22:22;;;;;;;17.90;9.15;;;;;;;;;;6139445;28;20543;-88
2024/01/06 13:25:24;;;;;;;10.35;9.35;;;;;;;;;;6135221;29;20055;-88
2024/01/06 13:28:25;;;;;;;9.18;8.35;;;;;;;;;;6139786;29;20393;-89
2024/01/06 13:31:27;;;;;;;8.35;7.85;;;;;;;;;;6141307;28;20826;-89
2024/01/06 13:34:29;;;;;;;8.45;8.05;;;;;;;;;;6133158;28;20555;-88
2024/01/06 13:37:32;;;;;;;9.52;8.93;;;;;;;;;;6132813;28;20700;-89
2024/01/06 13:40:34;;;;;;;7.85;7.55;;;;;;;;;;6138148;28;20086;-89
2024/01/06 13:43:36;;;;;;;8.23;7.80;;;;;;;;;;6135189;29;20516;-89
2024/01/06 13:46:40;;;;;;;8.10;7.47;;;;;;;;;;6140274;28;20166;-89
2024/01/06 13:49:42;;;;;;;9.18;8.40;;;;;;;;;;6135395;29;20043;-89
2024/01/06 13:52:48;;;;;;;8.88;8.25;;;;;;;;;;6130766;29;20069;-88
2024/01/06 13:55:50;;;;;;;8.85;8.02;;;;;;;;;;6139740;29;20046;-89
2024/01/06 13:58:52;;;;;;;9.90;8.38;;;;;;;;;;6140266;29;20482;-90
2024/01/06 14:01:54;;;;;;;8.85;8.13;;;;;;;;;;6137589;28;20059;-88
2024/01/06 14:04:56;;;;;;;11.93;10.82;;;;;;;;;;6140873;28;20070;-88
2024/01/06 14:08:00;;;;;;;8.05;7.40;;;;;;;;;;6133784;29;20087;-88
2024/01/06 14:11:02;;;;;;;11.63;8.25;;;;;;;;;;6139254;29;20058;-88
2024/01/06 14:14:04;;;;;;;9.32;8.30;;;;;;;;;;6132336;29;20928;-88
2024/01/06 14:17:06;;;;;;;11.95;7.93;;;;;;;;;;6136001;28;20051;-89
2024/01/06 14:20:12;;;;;;;7.50;7.10;;;;;;;;;;6136010;29;20054;-89
2024/01/06 14:23:15;;;;;;;11.07;9.95;;;;;;;;;;6136871;28;20533;-88
2024/01/06 14:26:19;;;;;;;7.72;7.05;;;;;;;;;;6138268;28;20051;-88
2024/01/06 14:29:22;;;;;;;9.02;8.38;;;;;;;;;;6138026;29;20150;-88
2024/01/06 14:32:23;;;;;;;9.10;8.45;;;;;;;;;;6134208;28;20264;-88
2024/01/06 14:35:26;;;;;;;8.23;7.72;;;;;;;;;;6136535;28;20047;-88
2024/01/06 14:38:28;;;;;;;8.27;7.78;;;;;;;;;;6133689;29;20148;-88
2024/01/06 14:41:30;;;;;;;7.35;6.93;;;;;;;;;;6136236;28;20432;-88
2024/01/06 14:44:32;;;;;;;8.30;7.80;;;;;;;;;;6139011;29;20043;-88
2024/01/06 14:47:34;;;;;;;9.25;8.65;;;;;;;;;;6140331;28;20050;-87
2024/01/06 14:50:36;;;;;;;9.32;8.48;;;;;;;;;;6135848;28;20402;-88
2024/01/06 14:53:38;;;;;;;9.10;8.52;;;;;;;;;;6131668;29;20039;-88
2024/01/06 14:56:40;;;;;;;16.25;8.88;;;;;;;;;;6133973;29;20095;-88
2024/01/06 14:59:43;;;;;;;7.82;7.35;;;;;;;;;;6135507;28;20055;-87
2024/01/06 15:02:49;;;;;;;8.02;7.63;;;;;;;;;;6133659;29;20051;-88
2024/01/06 15:05:51;;;;;;;7.75;7.25;;;;;;;;;;6132539;28;20036;-88
2024/01/06 15:08:53;;;;;;;8.63;8.15;;;;;;;;;;6129893;29;20493;-89
2024/01/06 15:11:57;;;;;;;9.77;9.07;;;;;;;;;;6133237;28;20090;-88
2024/01/06 15:15:00;;;;;;;8.07;7.38;;;;;;;;;;6138352;28;20050;-88
2024/01/06 15:18:01;;;;;;;10.82;9.93;;;;;;;;;;6139260;28;20035;-89
2024/01/06 15:21:04;;;;;;;7.88;7.47;;;;;;;;;;6125216;29;20047;-89
2024/01/06 15:24:06;;;;;;;9.02;8.48;;;;;;;;;;6138280;28;20114;-89
2024/01/06 15:27:08;;;;;;;8.55;7.93;;;;;;;;;;6140102;28;20058;-89
2024/01/06 15:30:10;;;;;;;7.65;7.32;;;;;;;;;;6137575;28;20417;-89
2024/01/06 15:33:14;;;;;;;10.07;9.43;;;;;;;;;;6130338;29;20113;-88
2024/01/06 15:36:16;;;;;;;8.07;7.72;;;;;;;;;;6131007;28;20520;-89
2024/01/06 15:39:18;;;;;;;8.35;7.93;;;;;;;;;;6121304;29;20279;-89
2024/01/06 15:42:20;;;;;;;8.88;8.27;;;;;;;;;;6133975;29;20111;-89
2024/01/06 15:45:21;;;;;;;10.77;7.60;;;;;;;;;;6133705;29;20109;-88
2024/01/06 15:48:23;;;;;;;9.00;8.48;;;;;;;;;;6135396;28;20050;-88
2024/01/06 15:51:27;;;;;;;10.73;7.68;;;;;;;;;;6132647;28;20047;-88
2024/01/06 15:54:29;;;;;;;15.07;7.90;;;;;;;;;;6135452;28;20043;-88
2024/01/06 15:57:33;;;;;;;7.82;7.38;;;;;;;;;;6142817;28;20059;-88
2024/01/06 16:00:34;;;;;;;8.20;7.55;;;;;;;;;;6139744;28;20372;-88
2024/01/06 16:03:39;;;;;;;8.02;7.43;;;;;;;;;;6141215;29;20047;-88
2024/01/06 16:06:41;;;;;;;10.43;9.35;;;;;;;;;;6136963;29;20042;-88
2024/01/06 16:09:43;;;;;;;10.82;10.00;;;;;;;;;;6138075;28;20379;-88
2024/01/06 16:12:44;;;;;;;8.70;7.97;;;;;;;;;;6142330;29;20087;-88
2024/01/06 16:15:46;;;;;;;8.77;8.18;;;;;;;;;;6133602;28;20043;-88
2024/01/06 16:18:48;;;;;;;8.65;8.05;;;;;;;;;;6135877;28;20549;-88
2024/01/06 16:21:50;;;;;;;7.68;7.18;;;;;;;;;;6141591;28;20617;-88
2024/01/06 16:25:07;;;;;;;9.95;9.35;;;;;;;;;;6143015;29;20070;-88
2024/01/06 16:28:11;;;;;;;8.60;8.13;;;;;;;;;;6139747;29;20520;-87
2024/01/06 16:31:13;;;;;;;8.95;8.45;;;;;;;;;;6139327;29;20047;-87
2024/01/06 16:34:15;;;;;;;8.55;8.05;;;;;;;;;;6143203;28;20043;-87
2024/01/06 16:37:17;;;;;;;8.98;8.25;;;;;;;;;;6141682;28;20409;-87
2024/01/06 16:40:19;;;;;;;9.75;8.88;;;;;;;;;;6131493;28;20039;-87
2024/01/06 16:43:21;;;;;;;8.20;7.80;;;;;;;;;;6140941;29;20043;-87
2024/01/06 16:46:22;;;;;;;8.38;7.93;;;;;;;;;;6136276;29;20042;-87
2024/01/06 16:49:27;;;;;;;10.82;9.20;;;;;;;;;;6141940;28;20043;-86
2024/01/06 16:52:29;;;;;;;8.20;7.65;;;;;;;;;;6132432;29;20051;-86
2024/01/06 16:55:31;;;;;;;8.80;8.25;;;;;;;;;;6139670;28;20378;-86
2024/01/06 16:58:34;;;;;;;7.68;7.25;;;;;;;;;;6139882;28;20059;-86
2024/01/06 17:01:36;;;;;;;11.05;10.45;;;;;;;;;;6128981;28;20425;-87
2024/01/06 17:04:37;;;;;;;7.30;6.93;;;;;;;;;;6139009;28;20039;-86
2024/01/06 17:07:44;;;;;;;8.02;7.57;;;;;;;;;;6136074;28;20138;-86
2024/01/06 17:10:46;;;;;;;8.82;8.25;;;;;;;;;;6132353;29;20044;-87
2024/01/06 17:13:48;;;;;;;9.88;9.32;;;;;;;;;;6138967;28;20039;-86
2024/01/06 17:16:50;;;;;;;9.23;8.63;;;;;;;;;;6140604;28;20062;-86
2024/01/06 17:19:53;;;;;;;15.27;9.15;;;;;;;;;;6118837;29;20576;-86
2024/01/06 17:22:55;;;;;;;8.13;7.47;;;;;;;;;;6148338;28;20412;-86
2024/01/06 17:25:56;;;;;;;7.97;7.38;;;;;;;;;;6135877;28;20050;-86
2024/01/06 17:28:58;;;;;;;10.35;8.68;;;;;;;;;;6139736;28;20047;-86
2024/01/06 17:32:00;;;;;;;7.80;7.30;;;;;;;;;;6130811;29;20251;-86
2024/01/06 17:35:07;;;;;;;9.75;9.10;;;;;;;;;;6137075;28;20629;-86
2024/01/06 17:38:09;;;;;;;10.80;9.95;;;;;;;;;;6138210;29;20054;-86
2024/01/06 17:41:11;;;;;;;9.40;8.63;;;;;;;;;;6139799;29;20505;-86
2024/01/06 17:44:13;;;;;;;7.10;6.80;;;;;;;;;;6135230;28;20062;-87
2024/01/06 17:47:16;;;;;;;9.25;8.65;;;;;;;;;;6126520;28;20063;-86
2024/01/06 17:50:17;;;;;;;8.98;8.40;;;;;;;;;;6135420;29;20421;-86
2024/01/06 17:53:19;;;;;;;8.27;7.68;;;;;;;;;;6140118;28;20043;-86
2024/01/06 17:56:21;;;;;;;10.35;9.57;;;;;;;;;;6129800;29;20669;-86
2024/01/06 17:59:24;;;;;;;13.68;8.85;;;;;;;;;;6129943;29;20039;-86
2024/01/06 18:02:25;;;;;;;10.05;9.10;;;;;;;;;;6139016;28;20063;-86
2024/01/06 18:05:27;;;;;;;10.27;9.40;;;;;;;;;;6136265;28;20047;-86
2024/01/06 18:08:29;;;;;;;8.68;7.95;;;;;;;;;;6141087;28;20051;-86